createdAt,value
2024-03-05T00:01:40.504Z,13.32
2024-03-05T00:04:08.158Z,12.55
2024-03-05T00:06:35.332Z,11.77
2024-03-05T00:09:02.455Z,14.02
2024-03-05T00:11:29.612Z,13.65
2024-03-05T00:13:56.997Z,14.52
2024-03-05T00:16:24.668Z,16.52
2024-03-05T00:18:51.942Z,14.18
2024-03-05T00:21:19.168Z,13.95
2024-03-05T00:23:46.321Z,17.25
2024-03-05T00:26:19.404Z,21.30
2024-03-05T00:28:47.387Z,24.23
2024-03-05T00:31:14.776Z,23.75
2024-03-05T00:33:41.970Z,24.83
2024-03-05T00:36:09.428Z,22.98
2024-03-05T00:38:36.664Z,24.80
2024-03-05T00:41:04.247Z,24.42
2024-03-05T00:43:31.655Z,21.35
2024-03-05T00:45:58.758Z,19.45
2024-03-05T00:48:26.041Z,22.58
2024-03-05T00:50:53.297Z,19.13
2024-03-05T00:53:21.754Z,18.40
2024-03-05T00:55:49.029Z,20.60
2024-03-05T00:58:16.367Z,16.83
2024-03-05T01:00:44.510Z,15.50
2024-03-05T01:03:14.320Z,15.90
2024-03-05T01:05:41.473Z,15.43
2024-03-05T01:08:08.895Z,16.20
2024-03-05T01:10:36.000Z,15.40
2024-03-05T01:13:03.502Z,14.75
2024-03-05T01:15:30.637Z,14.45
2024-03-05T01:17:58.696Z,13.88
2024-03-05T01:20:25.966Z,15.10
2024-03-05T01:22:53.208Z,15.13
2024-03-05T01:25:20.611Z,15.70
2024-03-05T01:27:47.756Z,17.00
2024-03-05T01:30:15.693Z,18.90
2024-03-05T01:32:45.097Z,17.13
2024-03-05T01:35:12.754Z,16.65
2024-03-05T01:37:41.141Z,15.75
2024-03-05T01:40:10.348Z,14.52
2024-03-05T01:42:37.546Z,15.70
2024-03-05T01:45:05.152Z,14.55
2024-03-05T01:47:33.802Z,14.52
2024-03-05T01:50:05.154Z,15.30
2024-03-05T01:52:33.035Z,15.18
2024-03-05T01:55:07.774Z,15.02
2024-03-05T01:57:35.833Z,15.70
2024-03-05T02:00:04.312Z,14.88
2024-03-05T02:02:32.613Z,16.13
2024-03-05T02:05:00.530Z,16.13
2024-03-05T02:07:28.652Z,16.17
2024-03-05T02:09:56.997Z,16.35
2024-03-05T02:12:24.982Z,16.08
2024-03-05T02:14:53.864Z,16.52
2024-03-05T02:17:21.612Z,17.17
2024-03-05T02:19:52.190Z,17.83
2024-03-05T02:22:22.048Z,18.38
2024-03-05T02:24:49.197Z,17.70
2024-03-05T02:27:23.818Z,17.10
2024-03-05T02:29:54.894Z,17.10
2024-03-05T02:32:22.509Z,17.50
2024-03-05T02:34:50.564Z,17.85
2024-03-05T02:37:17.835Z,17.70
2024-03-05T02:39:45.108Z,17.70
2024-03-05T02:42:12.307Z,17.02
2024-03-05T02:44:39.471Z,17.70
2024-03-05T02:47:08.335Z,17.20
2024-03-05T02:49:35.596Z,17.45
2024-03-05T02:52:02.791Z,16.95
2024-03-05T02:54:29.996Z,17.83
2024-03-05T02:56:57.054Z,17.17
2024-03-05T02:59:25.326Z,17.17
2024-03-05T03:01:53.056Z,16.77
2024-03-05T03:04:20.287Z,17.15
2024-03-05T03:06:47.579Z,17.00
2024-03-05T03:09:14.814Z,17.33
2024-03-05T03:11:43.055Z,15.75
2024-03-05T03:14:10.642Z,15.40
2024-03-05T03:16:37.921Z,15.57
2024-03-05T03:19:06.012Z,16.10
2024-03-05T03:21:33.453Z,16.20
2024-03-05T03:24:00.715Z,16.60
2024-03-05T03:26:28.253Z,15.52
2024-03-05T03:28:56.095Z,15.18
2024-03-05T03:31:24.252Z,15.23
2024-03-05T03:33:51.393Z,15.90
2024-03-05T03:36:28.385Z,15.57
2024-03-05T03:38:55.450Z,14.30
2024-03-05T03:41:22.667Z,13.77
2024-03-05T03:43:50.128Z,14.95
2024-03-05T03:46:17.380Z,14.68
2024-03-05T03:48:44.523Z,15.55
2024-03-05T03:51:11.799Z,14.43
2024-03-05T03:53:38.984Z,15.63
2024-03-05T03:56:06.789Z,14.68
2024-03-05T03:58:34.308Z,15.60
2024-03-05T04:01:01.707Z,15.18
2024-03-05T04:03:29.693Z,14.43
2024-03-05T04:05:57.390Z,14.77
2024-03-05T04:08:24.628Z,14.45
2024-03-05T04:10:51.953Z,14.93
2024-03-05T04:13:19.287Z,15.20
2024-03-05T04:15:46.676Z,14.13
2024-03-05T04:18:14.273Z,14.30
2024-03-05T04:20:42.046Z,14.77
2024-03-05T04:23:11.674Z,14.52
2024-03-05T04:25:41.638Z,15.40
2024-03-05T04:28:13.708Z,15.23
2024-03-05T04:30:43.440Z,15.63
2024-03-05T04:33:12.323Z,14.98
2024-03-05T04:35:39.671Z,15.45
2024-03-05T04:38:06.797Z,14.25
2024-03-05T04:40:38.912Z,14.32
2024-03-05T04:43:06.940Z,15.03
2024-03-05T04:45:35.626Z,15.43
2024-03-05T04:48:03.637Z,14.85
2024-03-05T04:50:31.463Z,14.80
2024-03-05T04:52:58.981Z,14.82
2024-03-05T04:55:26.613Z,15.05
2024-03-05T04:57:54.017Z,15.70
2024-03-05T05:00:21.935Z,14.65
2024-03-05T05:02:53.965Z,15.50
2024-03-05T05:05:22.921Z,15.17
2024-03-05T05:07:50.403Z,15.32
2024-03-05T05:10:17.956Z,15.82
2024-03-05T05:12:46.195Z,13.98
2024-03-05T05:15:13.887Z,15.73
2024-03-05T05:17:41.872Z,15.40
2024-03-05T05:20:10.516Z,15.10
2024-03-05T05:22:43.326Z,15.30
2024-03-05T05:25:10.686Z,13.98
2024-03-05T05:27:38.209Z,15.07
2024-03-05T05:30:12.996Z,14.57
2024-03-05T05:32:41.647Z,13.80
2024-03-05T05:35:10.113Z,15.15
2024-03-05T05:37:38.596Z,14.85
2024-03-05T05:40:12.086Z,14.57
2024-03-05T05:42:42.241Z,13.52
2024-03-05T05:45:13.646Z,14.95
2024-03-05T05:47:50.393Z,15.52
2024-03-05T05:50:19.143Z,15.32
2024-03-05T05:52:52.046Z,17.30
2024-03-05T05:57:50.649Z,15.82
2024-03-05T06:00:40.871Z,15.85
2024-03-05T06:03:09.636Z,14.88
2024-03-05T06:05:39.626Z,15.20
2024-03-05T06:08:15.990Z,16.40
2024-03-05T06:10:43.612Z,16.05
2024-03-05T06:13:12.307Z,17.67
2024-03-05T06:15:39.960Z,17.60
2024-03-05T06:18:07.641Z,15.82
2024-03-05T06:20:35.014Z,17.67
2024-03-05T06:23:02.584Z,16.88
2024-03-05T06:25:30.092Z,17.05
2024-03-05T06:27:57.736Z,16.85
2024-03-05T06:30:26.397Z,17.58
2024-03-05T06:32:54.132Z,17.63
2024-03-05T06:35:25.451Z,15.77
2024-03-05T06:37:54.905Z,17.35
2024-03-05T06:40:25.290Z,17.40
2024-03-05T06:42:53.913Z,17.05
2024-03-05T06:45:29.200Z,17.58
2024-03-05T06:48:10.524Z,17.20
2024-03-05T06:50:46.126Z,17.08
2024-03-05T06:53:32.115Z,17.95
2024-03-05T06:56:18.880Z,17.58
2024-03-05T06:58:49.145Z,17.60
2024-03-05T07:01:17.309Z,18.02
2024-03-05T07:03:44.625Z,17.60
2024-03-05T07:06:14.489Z,19.05
2024-03-05T07:08:44.521Z,18.65
2024-03-05T07:11:13.925Z,19.75
2024-03-05T07:13:45.373Z,18.23
2024-03-05T07:16:17.938Z,19.90
2024-03-05T07:18:56.230Z,18.75
2024-03-05T07:21:25.935Z,18.27
2024-03-05T07:23:55.322Z,18.02
2024-03-05T07:26:24.751Z,18.45
2024-03-05T07:28:53.209Z,19.25
2024-03-05T07:31:20.731Z,18.30
2024-03-05T07:33:52.817Z,18.42
2024-03-05T07:36:22.161Z,18.27
2024-03-05T07:38:49.449Z,19.17
2024-03-05T07:41:26.587Z,19.92
2024-03-05T07:44:02.085Z,19.17
2024-03-05T07:46:31.241Z,19.05
2024-03-05T07:48:58.911Z,19.30
2024-03-05T07:51:29.189Z,18.50
2024-03-05T07:54:01.827Z,17.75
2024-03-05T07:56:29.229Z,18.08
2024-03-05T07:58:57.321Z,17.70
2024-03-05T08:01:25.516Z,18.05
2024-03-05T08:03:53.247Z,18.05
2024-03-05T08:06:20.361Z,18.60
2024-03-05T08:08:47.784Z,17.38
2024-03-05T08:11:15.028Z,18.15
2024-03-05T08:13:42.182Z,16.55
2024-03-05T08:16:11.129Z,19.20
2024-03-05T08:18:38.298Z,16.73
2024-03-05T08:21:05.638Z,17.80
2024-03-05T08:23:32.810Z,17.30
2024-03-05T08:26:00.178Z,18.48
2024-03-05T08:28:27.393Z,16.67
2024-03-05T08:30:55.340Z,16.55
2024-03-05T08:33:25.200Z,15.57
2024-03-05T08:35:53.193Z,14.95
2024-03-05T08:38:20.492Z,16.13
2024-03-05T08:40:50.117Z,18.63
2024-03-05T08:43:17.410Z,16.00
2024-03-05T08:45:44.638Z,17.75
2024-03-05T08:48:12.176Z,17.55
2024-03-05T08:50:41.168Z,17.75
2024-03-05T08:53:09.636Z,16.65
2024-03-05T08:55:37.290Z,17.73
2024-03-05T08:58:05.224Z,15.90
2024-03-05T09:00:42.164Z,16.42
2024-03-05T09:03:13.415Z,15.77
2024-03-05T09:05:44.317Z,15.75
2024-03-05T09:08:14.258Z,16.30
2024-03-05T09:10:42.125Z,16.73
2024-03-05T09:13:09.514Z,16.58
2024-03-05T09:15:41.412Z,16.73
2024-03-05T09:18:14.072Z,16.33
2024-03-05T09:20:43.388Z,18.27
2024-03-05T09:23:11.203Z,22.13
2024-03-05T09:25:40.094Z,19.98
2024-03-05T09:28:07.237Z,26.10
2024-03-05T09:30:35.289Z,17.20
2024-03-05T09:33:03.658Z,21.00
2024-03-05T09:35:31.629Z,22.83
2024-03-05T09:37:58.904Z,23.75
2024-03-05T09:40:26.229Z,25.38
2024-03-05T09:42:59.623Z,16.20
2024-03-05T09:45:31.737Z,17.38
2024-03-05T09:48:00.457Z,15.60
2024-03-05T09:50:28.136Z,17.45
2024-03-05T09:52:55.653Z,20.05
2024-03-05T09:55:23.037Z,21.00
2024-03-05T09:57:50.596Z,18.67
2024-03-05T10:00:21.915Z,18.60
2024-03-05T10:02:53.405Z,18.50
2024-03-05T10:05:21.465Z,18.00
2024-03-05T10:07:50.170Z,17.10
2024-03-05T10:10:22.974Z,17.38
2024-03-05T10:12:53.902Z,17.83
2024-03-05T10:15:27.094Z,18.50
2024-03-05T10:17:56.753Z,17.80
2024-03-05T10:20:35.520Z,17.67
2024-03-05T10:23:09.403Z,18.27
2024-03-05T10:25:37.852Z,18.77
2024-03-05T10:28:07.543Z,18.85
2024-03-05T10:30:37.249Z,19.15
2024-03-05T10:33:09.146Z,20.98
2024-03-05T10:35:39.685Z,18.92
2024-03-05T10:38:15.641Z,23.95
2024-03-05T10:40:46.275Z,18.80
2024-03-05T10:43:19.890Z,23.23
2024-03-05T10:45:49.167Z,18.15
2024-03-05T10:48:20.116Z,17.77
2024-03-05T10:50:51.383Z,17.52
2024-03-05T10:53:20.185Z,18.23
2024-03-05T10:55:52.824Z,20.83
2024-03-05T11:01:10.492Z,34.42
2024-03-05T11:03:42.027Z,23.23
2024-03-05T11:06:10.890Z,17.05
2024-03-05T11:08:38.784Z,22.73
2024-03-05T11:11:19.054Z,16.95
2024-03-05T11:13:50.356Z,17.15
2024-03-05T11:16:18.310Z,17.15
2024-03-05T11:18:50.314Z,16.27
2024-03-05T11:21:18.877Z,16.40
2024-03-05T11:23:59.368Z,17.02
2024-03-05T11:26:30.245Z,23.58
2024-03-05T11:29:21.497Z,16.33
2024-03-05T11:31:49.076Z,17.27
2024-03-05T11:34:19.406Z,16.48
2024-03-05T11:37:05.913Z,17.13
2024-03-05T11:39:33.580Z,16.33
2024-03-05T11:42:01.191Z,18.60
2024-03-05T11:44:42.351Z,16.85
2024-03-05T11:47:09.904Z,18.00
2024-03-05T11:49:38.729Z,17.33
2024-03-05T11:52:07.345Z,17.13
2024-03-05T11:54:37.182Z,17.50
2024-03-05T11:57:05.151Z,17.80
2024-03-05T11:59:37.686Z,18.10
2024-03-05T12:02:12.233Z,17.98
2024-03-05T12:04:40.616Z,17.80
2024-03-05T12:07:11.096Z,16.27
2024-03-05T12:09:38.642Z,15.38
2024-03-05T12:12:12.485Z,16.23
2024-03-05T12:14:54.681Z,16.45
2024-03-05T12:17:25.161Z,16.20
2024-03-05T12:20:10.598Z,16.77
2024-03-05T12:22:41.406Z,16.95
2024-03-05T12:25:09.778Z,16.20
2024-03-05T12:27:39.666Z,15.32
2024-03-05T12:30:12.071Z,14.88
2024-03-05T12:32:43.574Z,14.27
2024-03-05T12:35:14.940Z,14.70
2024-03-05T12:37:42.860Z,15.30
2024-03-05T12:40:18.494Z,14.15
2024-03-05T12:42:50.527Z,17.58
2024-03-05T12:45:22.728Z,16.55
2024-03-05T12:48:03.356Z,15.43
2024-03-05T12:50:31.967Z,14.98
2024-03-05T12:53:03.789Z,14.70
2024-03-05T12:55:34.787Z,14.02
2024-03-05T12:58:19.685Z,12.55
2024-03-05T13:00:46.898Z,12.80
2024-03-05T13:03:15.212Z,12.57
2024-03-05T13:05:43.750Z,13.20
2024-03-05T13:08:11.181Z,14.52
2024-03-05T13:10:39.260Z,14.43
2024-03-05T13:13:06.402Z,14.35
2024-03-05T13:15:34.198Z,14.02
2024-03-05T13:18:01.514Z,15.40
2024-03-05T13:20:29.551Z,15.10
2024-03-05T13:22:56.914Z,14.48
2024-03-05T13:25:29.884Z,14.35
2024-03-05T13:30:28.131Z,13.73
2024-03-05T13:33:02.566Z,13.95
2024-03-05T13:35:31.851Z,15.00
2024-03-05T13:37:59.513Z,15.13
2024-03-05T13:40:26.833Z,18.80
2024-03-05T13:42:53.910Z,14.45
2024-03-05T13:45:21.155Z,19.50
2024-03-05T13:47:48.500Z,15.82
2024-03-05T13:50:18.543Z,13.73
2024-03-05T13:52:49.928Z,15.27
2024-03-05T13:55:17.858Z,13.18
2024-03-05T13:57:45.813Z,13.55
2024-03-05T14:00:21.262Z,13.15
2024-03-05T14:02:49.726Z,13.35
2024-03-05T14:05:17.333Z,13.98
2024-03-05T14:07:45.716Z,17.65
2024-03-05T14:10:16.702Z,14.63
2024-03-05T14:12:44.023Z,13.30
2024-03-05T14:15:21.786Z,13.70
2024-03-05T14:17:50.415Z,12.55
2024-03-05T14:20:24.994Z,12.23
2024-03-05T14:22:52.660Z,12.50
2024-03-05T14:25:19.872Z,14.18
2024-03-05T14:27:49.305Z,12.63
2024-03-05T14:30:19.737Z,12.02
2024-03-05T14:32:47.575Z,11.85
2024-03-05T14:35:15.128Z,12.23
2024-03-05T14:37:43.729Z,12.35
2024-03-05T14:40:12.019Z,12.30
2024-03-05T14:42:39.646Z,11.40
2024-03-05T14:45:08.893Z,11.88
2024-03-05T14:47:35.982Z,11.68
2024-03-05T14:50:06.030Z,11.75
2024-03-05T14:52:33.219Z,12.82
2024-03-05T14:55:01.835Z,13.23
2024-03-05T14:57:29.668Z,13.25
2024-03-05T14:59:56.964Z,13.02
2024-03-05T15:02:24.264Z,12.68
2024-03-05T15:04:51.763Z,13.43
2024-03-05T15:07:19.069Z,13.73
2024-03-05T15:09:46.868Z,17.92
2024-03-05T15:12:14.034Z,21.55
2024-03-05T15:14:43.495Z,22.00
2024-03-05T15:17:11.923Z,23.77
2024-03-05T15:19:39.327Z,33.55
2024-03-05T15:22:09.776Z,18.17
2024-03-05T15:24:37.655Z,16.10
2024-03-05T15:27:06.272Z,14.77
2024-03-05T15:29:34.097Z,16.20
2024-03-05T15:32:02.836Z,15.25
2024-03-05T15:34:30.313Z,15.60
2024-03-05T15:36:57.892Z,15.18
2024-03-05T15:39:25.262Z,16.30
2024-03-05T15:41:52.659Z,17.55
2024-03-05T15:44:19.871Z,20.92
2024-03-05T15:46:50.055Z,16.73
2024-03-05T15:49:17.348Z,18.23
2024-03-05T15:51:45.515Z,21.30
2024-03-05T15:54:14.757Z,19.00
2024-03-05T15:56:59.230Z,18.67
2024-03-05T16:00:02.295Z,24.10
2024-03-05T16:02:29.678Z,25.55
2024-03-05T16:05:13.978Z,22.30
2024-03-05T16:07:48.635Z,24.13
2024-03-05T16:10:16.025Z,22.75
2024-03-05T16:12:44.717Z,22.20
2024-03-05T16:15:17.027Z,20.35
2024-03-05T16:17:45.046Z,19.73
2024-03-05T16:20:19.854Z,22.90
2024-03-05T16:22:54.001Z,21.27
2024-03-05T16:25:26.347Z,21.85
2024-03-05T16:27:56.863Z,21.92
2024-03-05T16:30:28.587Z,22.35
2024-03-05T16:32:57.092Z,22.38
2024-03-05T16:35:28.749Z,22.60
2024-03-05T16:37:56.446Z,23.63
2024-03-05T16:40:25.414Z,24.00
2024-03-05T16:43:01.416Z,23.58
2024-03-05T16:45:29.129Z,24.05
2024-03-05T16:48:01.994Z,23.80
2024-03-05T16:52:59.803Z,22.58
2024-03-05T16:55:28.713Z,24.55
2024-03-05T16:58:00.764Z,24.77
2024-03-05T17:00:34.600Z,25.53
2024-03-05T17:03:09.001Z,25.65
2024-03-05T17:05:42.907Z,25.55
2024-03-05T17:08:16.062Z,23.90
2024-03-05T17:10:45.636Z,26.48
2024-03-05T17:13:20.060Z,25.38
2024-03-05T17:15:57.737Z,28.77
2024-03-05T17:18:25.613Z,25.85
2024-03-05T17:20:54.591Z,25.88
2024-03-05T17:23:25.933Z,25.58
2024-03-05T17:25:57.628Z,26.45
2024-03-05T17:28:27.903Z,25.05
2024-03-05T17:30:57.303Z,25.20
2024-03-05T17:33:25.070Z,26.13
2024-03-05T17:35:56.217Z,28.00
2024-03-05T17:38:25.362Z,28.88
2024-03-05T17:40:53.827Z,27.48
2024-03-05T17:43:21.088Z,26.88
2024-03-05T17:45:49.328Z,28.23
2024-03-05T17:48:16.830Z,27.80
2024-03-05T17:50:46.979Z,28.27
2024-03-05T17:53:14.449Z,26.90
2024-03-05T17:55:41.780Z,29.80
2024-03-05T17:58:09.634Z,30.92
2024-03-05T18:00:46.627Z,29.65
2024-03-05T18:03:23.873Z,28.20
2024-03-05T18:05:51.591Z,28.65
2024-03-05T18:08:19.180Z,30.45
2024-03-05T18:10:48.137Z,28.73
2024-03-05T18:13:19.591Z,29.00
2024-03-05T18:15:49.539Z,29.33
2024-03-05T18:18:19.561Z,28.95
2024-03-05T18:20:47.532Z,28.35
2024-03-05T18:23:14.786Z,28.58
2024-03-05T18:25:46.090Z,28.00
2024-03-05T18:28:26.435Z,28.33
2024-03-05T18:30:56.224Z,28.67
2024-03-05T18:33:23.760Z,28.48
2024-03-05T18:35:53.320Z,29.25
2024-03-05T18:38:28.455Z,28.30
2024-03-05T18:41:01.652Z,29.70
2024-03-05T18:43:31.933Z,30.45
2024-03-05T18:46:02.604Z,30.40
2024-03-05T18:48:30.873Z,29.52
2024-03-05T18:51:00.649Z,30.65
2024-03-05T18:53:39.372Z,30.13
2024-03-05T18:58:47.647Z,29.90
2024-03-05T19:01:17.283Z,30.42
2024-03-05T19:03:45.270Z,33.03
2024-03-05T19:06:12.614Z,30.90
2024-03-05T19:08:40.014Z,33.50
2024-03-05T19:11:11.062Z,34.80
2024-03-05T19:13:39.344Z,33.65
2024-03-05T19:16:07.717Z,34.65
2024-03-05T19:18:35.246Z,34.90
2024-03-05T19:21:03.223Z,38.90
2024-03-05T19:23:30.435Z,46.90
2024-03-05T19:25:57.616Z,42.28
2024-03-05T19:28:26.550Z,45.38
2024-03-05T19:30:54.201Z,44.40
2024-03-05T19:33:21.505Z,45.88
2024-03-05T19:35:50.751Z,38.60
2024-03-05T19:38:17.940Z,40.97
2024-03-05T19:40:46.602Z,38.30
2024-03-05T19:43:13.758Z,39.25
2024-03-05T19:45:41.934Z,38.83
2024-03-05T19:48:10.661Z,39.20
2024-03-05T19:50:38.159Z,39.33
2024-03-05T19:53:06.056Z,39.70
2024-03-05T19:55:34.929Z,40.15
2024-03-05T19:58:02.207Z,40.67
2024-03-05T20:00:29.733Z,43.00
2024-03-05T20:02:57.053Z,42.25
2024-03-05T20:05:24.623Z,40.60
2024-03-05T20:07:55.175Z,40.08
2024-03-05T20:10:22.868Z,41.35
2024-03-05T20:12:50.134Z,41.70
2024-03-05T20:15:17.624Z,41.08
2024-03-05T20:17:45.467Z,40.97
2024-03-05T20:20:19.623Z,42.58
2024-03-05T20:22:49.238Z,41.42
2024-03-05T20:25:22.809Z,42.55
2024-03-05T20:27:52.035Z,41.65
2024-03-05T20:30:19.969Z,39.78
2024-03-05T20:32:47.435Z,40.15
2024-03-05T20:35:18.270Z,40.20
2024-03-05T20:37:51.426Z,40.40
2024-03-05T20:40:23.943Z,38.97
2024-03-05T20:42:51.564Z,41.00
2024-03-05T20:45:21.798Z,41.22
2024-03-05T20:47:49.652Z,39.35
2024-03-05T20:50:17.087Z,39.80
2024-03-05T20:52:44.638Z,38.97
2024-03-05T20:55:12.019Z,39.70
2024-03-05T20:57:40.434Z,40.53
2024-03-05T21:00:13.573Z,39.30
2024-03-05T21:02:42.482Z,38.45
2024-03-05T21:05:11.410Z,37.92
2024-03-05T21:07:39.890Z,38.72
2024-03-05T21:10:11.214Z,39.95
2024-03-05T21:12:39.789Z,40.15
2024-03-05T21:15:12.487Z,40.92
2024-03-05T21:17:41.749Z,39.45
2024-03-05T21:20:13.479Z,39.15
2024-03-05T21:22:43.493Z,45.17
2024-03-05T21:25:11.965Z,50.80
2024-03-05T21:27:41.220Z,49.88
2024-03-05T21:30:13.060Z,51.75
2024-03-05T21:32:43.481Z,60.35
2024-03-05T21:35:11.348Z,47.35
2024-03-05T21:37:42.646Z,49.72
2024-03-05T21:40:14.801Z,50.30
2024-03-05T21:42:45.328Z,45.42
2024-03-05T21:45:16.027Z,48.70
2024-03-05T21:47:47.369Z,44.50
2024-03-05T21:50:14.895Z,42.78
2024-03-05T21:52:46.439Z,40.65
2024-03-05T21:55:14.028Z,39.10
2024-03-05T21:57:41.587Z,41.10
2024-03-05T22:00:12.458Z,41.03
2024-03-05T22:02:44.726Z,40.83
2024-03-05T22:05:13.867Z,44.90
2024-03-05T22:07:41.598Z,43.63
2024-03-05T22:10:10.054Z,45.55
2024-03-05T22:12:41.983Z,43.72
2024-03-05T22:15:11.253Z,47.47
2024-03-05T22:17:39.574Z,48.28
2024-03-05T22:20:09.442Z,46.58
2024-03-05T22:22:37.351Z,47.50
2024-03-05T22:25:07.856Z,47.10
2024-03-05T22:27:35.672Z,47.28
2024-03-05T22:30:04.270Z,48.10
2024-03-05T22:32:31.643Z,46.08
2024-03-05T22:34:59.510Z,46.55
2024-03-05T22:37:27.022Z,48.33
2024-03-05T22:39:54.402Z,44.85
2024-03-05T22:42:21.715Z,45.63
2024-03-05T22:44:49.002Z,47.97
2024-03-05T22:47:16.373Z,46.95
2024-03-05T22:49:46.437Z,45.20
2024-03-05T22:52:15.072Z,45.40
2024-03-05T22:54:42.478Z,42.45
2024-03-05T22:57:09.954Z,44.53
2024-03-05T22:59:37.355Z,42.80
2024-03-05T23:02:05.954Z,45.40
2024-03-05T23:04:33.886Z,44.97
2024-03-05T23:07:01.161Z,47.15
2024-03-05T23:09:28.453Z,50.13
2024-03-05T23:11:55.856Z,51.22
2024-03-05T23:14:23.219Z,47.85
2024-03-05T23:16:51.827Z,48.75
2024-03-05T23:19:19.146Z,45.97
2024-03-05T23:21:46.377Z,46.80
2024-03-05T23:24:13.561Z,45.90
2024-03-05T23:26:40.647Z,47.78
2024-03-05T23:29:07.940Z,47.33
2024-03-05T23:31:35.114Z,47.92
2024-03-05T23:34:02.412Z,46.85
2024-03-05T23:36:29.712Z,47.10
2024-03-05T23:38:56.893Z,47.20
2024-03-05T23:41:31.664Z,47.35
2024-03-05T23:43:59.972Z,50.13
2024-03-05T23:46:27.232Z,49.00
2024-03-05T23:48:54.521Z,49.30
2024-03-05T23:51:21.671Z,50.80
2024-03-05T23:53:48.957Z,50.40
2024-03-05T23:56:16.232Z,50.97
2024-03-05T23:58:43.699Z,51.03
